Time;durP1;ratioP1;P1;durP2;ratioP2;P2;SDS_P1;SDS_P2;PMS_P1;PMS_P2;Temp;Humidity;BMP_temperature;BMP_pressure;BME280_temperature;BME280_humidity;BME280_pressure;Samples;Min_cycle;Max_cycle;Signal;HPM_P1;HPM_P2
2022/09/28 00:00:28;;;;;;;3.50;1.90;;;11.90;99.90;;;;;;5054690;28;20647;-81
2022/09/28 00:02:56;;;;;;;2.40;1.70;;;12.00;99.90;;;;;;5046449;28;20279;-80
2022/09/28 00:05:22;;;;;;;2.72;1.75;;;11.90;99.90;;;;;;5041182;28;20095;-80
2022/09/28 00:07:48;;;;;;;2.20;1.40;;;11.90;99.90;;;;;;5070842;28;20019;-81
2022/09/28 00:10:14;;;;;;;1.83;1.20;;;11.90;99.90;;;;;;5071274;28;20467;-81
2022/09/28 00:12:40;;;;;;;1.77;1.10;;;11.90;99.90;;;;;;5042041;28;20031;-81
2022/09/28 00:15:07;;;;;;;1.65;1.20;;;11.90;99.90;;;;;;5070671;28;20032;-81
2022/09/28 00:17:32;;;;;;;1.20;1.10;;;11.90;99.90;;;;;;5059995;28;20024;-79
2022/09/28 00:19:58;;;;;;;1.50;1.10;;;11.80;99.90;;;;;;5051842;28;20185;-81
2022/09/28 00:22:24;;;;;;;1.53;1.00;;;11.80;99.90;;;;;;5067839;28;20071;-81
2022/09/28 00:24:49;;;;;;;1.67;1.27;;;11.80;99.90;;;;;;5068050;28;20507;-80
2022/09/28 00:27:16;;;;;;;2.43;1.23;;;11.80;99.90;;;;;;5057471;28;20077;-81
2022/09/28 00:29:42;;;;;;;2.75;1.38;;;11.80;99.90;;;;;;5049795;28;20078;-81
2022/09/28 00:32:12;;;;;;;1.80;1.30;;;11.80;99.90;;;;;;5066177;28;20073;-80
2022/09/28 00:34:47;;;;;;;1.90;1.40;;;11.80;99.90;;;;;;5041406;28;21040;-81
2022/09/28 00:37:13;;;;;;;2.75;1.60;;;11.80;99.90;;;;;;5070020;28;20030;-81
2022/09/28 00:39:40;;;;;;;1.95;1.42;;;11.80;99.90;;;;;;5068782;28;20253;-81
2022/09/28 00:42:22;;;;;;;2.60;1.50;;;11.80;99.90;;;;;;5064448;28;20036;-81
2022/09/28 00:44:48;;;;;;;1.80;1.38;;;11.80;99.90;;;;;;5043739;28;20288;-81
2022/09/28 00:47:38;;;;;;;1.60;1.30;;;11.80;99.90;;;;;;5066429;28;20032;-81
2022/09/28 00:50:10;;;;;;;2.30;1.50;;;11.80;99.90;;;;;;5037441;28;20365;-81
2022/09/28 00:52:49;;;;;;;2.22;1.30;;;11.80;99.90;;;;;;5068290;28;20036;-81
2022/09/28 00:55:20;;;;;;;1.90;1.50;;;11.80;99.90;;;;;;5063572;28;20085;-81
2022/09/28 00:57:55;;;;;;;3.13;1.80;;;11.80;99.90;;;;;;5056523;28;20362;-81
2022/09/28 01:00:21;;;;;;;2.67;1.60;;;11.80;99.90;;;;;;5073330;28;20387;-81
2022/09/28 01:02:47;;;;;;;2.20;1.53;;;11.80;99.90;;;;;;5062236;28;20029;-80
2022/09/28 01:05:13;;;;;;;3.30;1.85;;;11.80;99.90;;;;;;5037711;28;20343;-80
2022/09/28 01:07:40;;;;;;;2.85;1.80;;;11.80;99.90;;;;;;5071774;28;20538;-80
2022/09/28 01:10:07;;;;;;;2.60;1.70;;;11.80;99.90;;;;;;5060700;28;20267;-80
2022/09/28 01:12:32;;;;;;;2.53;1.70;;;11.80;99.90;;;;;;5036003;28;20020;-80
2022/09/28 01:14:59;;;;;;;2.55;1.63;;;11.80;99.90;;;;;;5072561;28;20683;-81
2022/09/28 01:17:58;;;;;;;2.60;1.77;;;11.80;99.90;;;;;;5073494;28;20023;-80
2022/09/28 01:20:41;;;;;;;2.37;1.57;;;11.80;99.90;;;;;;5025963;28;20049;-80
2022/09/28 01:23:29;;;;;;;2.90;1.80;;;11.80;99.90;;;;;;5079098;28;20309;-80
2022/09/28 01:26:13;;;;;;;2.42;1.63;;;11.80;99.90;;;;;;5066924;28;20707;-80
2022/09/28 01:28:42;;;;;;;1.90;1.60;;;11.80;99.90;;;;;;5060712;28;20499;-80
2022/09/28 01:31:13;;;;;;;2.40;1.70;;;11.80;99.90;;;;;;5056884;28;20019;-80
2022/09/28 01:33:49;;;;;;;3.60;1.57;;;11.80;99.90;;;;;;5057896;28;20069;-80
2022/09/28 01:36:24;;;;;;;2.75;1.67;;;11.80;99.90;;;;;;5028884;28;20024;-80
2022/09/28 01:38:54;;;;;;;2.50;1.70;;;11.80;99.90;;;;;;5049894;28;20028;-81
2022/09/28 01:41:22;;;;;;;2.65;1.80;;;11.80;99.90;;;;;;5066698;28;20035;-80
2022/09/28 01:43:54;;;;;;;3.35;1.77;;;11.80;99.90;;;;;;5062156;28;20028;-80
2022/09/28 01:46:26;;;;;;;2.83;1.90;;;11.80;99.90;;;;;;5051905;28;20028;-80
2022/09/28 01:49:04;;;;;;;3.13;2.00;;;11.80;99.90;;;;;;5076299;28;20145;-80
2022/09/28 01:51:42;;;;;;;3.00;2.10;;;11.80;99.90;;;;;;5036681;28;20135;-81
2022/09/28 01:54:26;;;;;;;2.50;1.80;;;11.80;99.90;;;;;;5061613;28;20052;-80
2022/09/28 01:57:02;;;;;;;3.08;2.20;;;11.80;99.90;;;;;;5059390;28;20275;-80
2022/09/28 01:59:31;;;;;;;2.80;2.07;;;11.80;99.90;;;;;;5060151;28;20063;-80
2022/09/28 02:02:04;;;;;;;2.83;2.10;;;11.80;99.90;;;;;;5043686;28;20025;-80
2022/09/28 02:04:52;;;;;;;3.30;2.17;;;11.80;99.90;;;;;;5049086;28;20028;-81
2022/09/28 02:07:39;;;;;;;3.90;2.08;;;11.80;99.90;;;;;;5069352;28;20027;-80
2022/09/28 02:10:24;;;;;;;4.78;2.47;;;11.80;99.90;;;;;;5060854;28;20387;-80
2022/09/28 02:12:56;;;;;;;3.33;2.20;;;11.80;99.90;;;;;;5073430;28;20295;-80
2022/09/28 02:15:41;;;;;;;4.18;2.30;;;11.70;99.90;;;;;;5070443;28;20032;-80
2022/09/28 02:18:08;;;;;;;3.25;2.00;;;11.70;99.90;;;;;;5080465;28;20023;-81
2022/09/28 02:20:37;;;;;;;3.60;1.92;;;11.70;99.90;;;;;;5077241;28;20028;-80
2022/09/28 02:23:03;;;;;;;4.50;2.22;;;11.70;99.90;;;;;;5054989;28;20301;-80
2022/09/28 02:25:46;;;;;;;3.27;2.13;;;11.70;99.90;;;;;;5046691;28;20503;-80
2022/09/28 02:28:13;;;;;;;3.20;2.03;;;11.70;99.90;;;;;;5069265;28;20028;-80
2022/09/28 02:30:42;;;;;;;2.95;2.10;;;11.70;99.90;;;;;;5074927;28;20041;-80
2022/09/28 02:33:21;;;;;;;3.25;1.90;;;11.70;99.90;;;;;;5058554;28;20047;-80
2022/09/28 02:35:47;;;;;;;4.20;2.03;;;11.70;99.90;;;;;;5061596;28;20119;-80
2022/09/28 02:38:14;;;;;;;3.43;2.13;;;11.70;99.90;;;;;;5066942;28;20028;-80
2022/09/28 02:40:42;;;;;;;2.90;1.90;;;11.70;99.90;;;;;;5052321;28;20818;-80
2022/09/28 02:43:13;;;;;;;2.65;1.83;;;11.70;99.90;;;;;;5061772;28;20024;-81
2022/09/28 02:46:00;;;;;;;2.50;1.90;;;11.60;99.90;;;;;;5073569;28;20047;-81
2022/09/28 02:48:50;;;;;;;2.50;1.80;;;11.60;99.90;;;;;;5066656;28;20343;-80
2022/09/28 02:51:20;;;;;;;2.58;1.77;;;11.50;99.90;;;;;;5071860;28;20244;-81
2022/09/28 02:53:51;;;;;;;3.38;1.95;;;11.60;99.90;;;;;;5039442;28;20054;-80
2022/09/28 02:56:38;;;;;;;2.80;1.90;;;11.60;99.90;;;;;;5076117;28;20481;-81
2022/09/28 02:59:11;;;;;;;3.03;2.30;;;11.50;99.90;;;;;;5069369;28;20241;-81
2022/09/28 03:01:55;;;;;;;2.60;1.80;;;11.50;99.90;;;;;;5068156;28;20577;-80
2022/09/28 03:04:30;;;;;;;2.90;1.98;;;11.50;99.90;;;;;;5066995;28;20264;-81
2022/09/28 03:07:03;;;;;;;3.08;1.83;;;11.50;99.90;;;;;;5073156;28;20043;-81
2022/09/28 03:09:39;;;;;;;3.60;2.20;;;11.50;99.90;;;;;;5051058;28;20500;-81
2022/09/28 03:12:12;;;;;;;3.45;2.10;;;11.50;99.90;;;;;;5074085;28;20089;-81
2022/09/28 03:14:38;;;;;;;4.07;2.17;;;11.50;99.90;;;;;;5082573;28;20488;-80
2022/09/28 03:17:04;;;;;;;3.15;1.92;;;11.50;99.90;;;;;;5066428;28;20025;-80
2022/09/28 03:19:32;;;;;;;4.57;2.28;;;11.40;99.90;;;;;;5054568;28;20086;-80
2022/09/28 03:21:59;;;;;;;3.22;2.10;;;11.40;99.90;;;;;;5053390;28;20098;-81
2022/09/28 03:24:25;;;;;;;3.90;2.07;;;11.40;99.90;;;;;;5048744;28;20126;-80
2022/09/28 03:26:50;;;;;;;3.58;2.10;;;11.40;99.90;;;;;;5065491;28;20121;-80
2022/09/28 03:29:16;;;;;;;3.60;2.22;;;11.30;99.90;;;;;;5066516;28;20017;-80
2022/09/28 03:31:43;;;;;;;3.50;2.20;;;11.30;99.90;;;;;;5069339;28;20227;-80
2022/09/28 03:34:08;;;;;;;3.65;2.30;;;11.20;99.90;;;;;;5071265;28;20080;-80
2022/09/28 03:36:34;;;;;;;4.32;2.80;;;11.20;99.90;;;;;;5056862;28;20388;-80
2022/09/28 03:39:00;;;;;;;3.60;2.20;;;11.20;99.90;;;;;;5048257;28;20028;-80
2022/09/28 03:41:29;;;;;;;3.72;2.42;;;11.10;99.90;;;;;;5045922;28;20032;-80
2022/09/28 03:43:54;;;;;;;4.40;2.27;;;11.10;99.90;;;;;;5079471;28;20480;-80
2022/09/28 03:46:20;;;;;;;4.10;2.55;;;11.10;99.90;;;;;;5043600;28;20084;-80
2022/09/28 03:48:46;;;;;;;4.13;2.38;;;11.00;99.90;;;;;;5057194;28;20137;-80
2022/09/28 03:51:12;;;;;;;3.77;2.50;;;11.00;99.90;;;;;;5064696;28;20201;-80
2022/09/28 03:53:38;;;;;;;4.20;2.63;;;11.00;99.90;;;;;;5075928;28;20620;-80
2022/09/28 03:56:07;;;;;;;3.80;2.40;;;11.00;99.90;;;;;;5058738;28;20031;-80
2022/09/28 03:58:33;;;;;;;4.57;2.75;;;10.90;99.90;;;;;;5066384;28;20462;-80
2022/09/28 04:01:07;;;;;;;4.07;2.40;;;10.90;99.90;;;;;;5075687;28;20477;-80
2022/09/28 04:03:32;;;;;;;3.45;2.25;;;10.80;99.90;;;;;;5054515;28;20339;-80
2022/09/28 04:05:58;;;;;;;3.20;2.35;;;10.80;99.90;;;;;;5052910;28;20216;-80
2022/09/28 04:08:24;;;;;;;3.97;2.33;;;10.80;99.90;;;;;;5062855;28;20028;-79
2022/09/28 04:10:50;;;;;;;4.28;2.30;;;10.80;99.90;;;;;;5026583;28;20048;-79
2022/09/28 04:13:15;;;;;;;3.30;2.00;;;10.70;99.90;;;;;;5064723;28;20016;-80
2022/09/28 04:15:42;;;;;;;3.37;2.13;;;10.70;99.90;;;;;;5058554;28;20278;-80
2022/09/28 04:18:10;;;;;;;4.00;2.30;;;10.70;99.90;;;;;;5055928;28;20506;-79
2022/09/28 04:20:35;;;;;;;3.67;2.20;;;10.70;99.90;;;;;;5058417;28;20058;-79
2022/09/28 04:23:01;;;;;;;3.33;2.00;;;10.70;99.90;;;;;;5045131;28;20145;-79
2022/09/28 04:25:27;;;;;;;3.30;2.30;;;10.70;99.90;;;;;;5070207;28;20028;-79
2022/09/28 04:30:37;;;;;;;3.00;2.00;;;10.70;99.90;;;;;;5061355;28;20503;-79
2022/09/28 04:33:02;;;;;;;3.97;2.20;;;10.70;99.90;;;;;;5048018;28;20107;-80
2022/09/28 04:35:28;;;;;;;3.40;2.20;;;10.70;99.90;;;;;;5064745;28;20101;-79
2022/09/28 04:37:54;;;;;;;2.57;1.77;;;10.70;99.90;;;;;;5063980;28;20599;-79
2022/09/28 04:40:20;;;;;;;2.40;1.67;;;10.70;99.90;;;;;;5069447;28;20088;-79
2022/09/28 04:42:53;;;;;;;2.40;1.70;;;10.60;99.90;;;;;;5053027;28;21388;-79
2022/09/28 04:45:19;;;;;;;2.77;1.80;;;10.60;99.90;;;;;;5062252;28;20165;-79
2022/09/28 04:47:45;;;;;;;3.15;1.92;;;10.60;99.90;;;;;;5071634;28;20376;-79
2022/09/28 04:50:10;;;;;;;3.87;2.23;;;10.50;99.90;;;;;;5065759;28;20115;-79
2022/09/28 04:52:36;;;;;;;3.50;1.93;;;10.50;99.90;;;;;;5066409;28;20084;-79
2022/09/28 04:55:03;;;;;;;2.67;1.67;;;10.50;99.90;;;;;;5056536;28;20862;-79
2022/09/28 04:57:29;;;;;;;3.20;1.90;;;10.40;99.90;;;;;;5071797;28;20025;-79
2022/09/28 04:59:54;;;;;;;3.03;1.57;;;10.40;99.90;;;;;;5048042;28;22419;-79
2022/09/28 05:02:20;;;;;;;2.73;1.80;;;10.30;99.90;;;;;;5031380;28;20270;-79
2022/09/28 05:04:46;;;;;;;3.07;2.03;;;10.30;99.90;;;;;;5060932;28;20473;-79
2022/09/28 05:07:11;;;;;;;3.60;2.15;;;10.20;99.90;;;;;;5041722;28;20109;-79
2022/09/28 05:09:37;;;;;;;2.60;1.80;;;10.20;99.90;;;;;;5061270;28;20021;-79
2022/09/28 05:12:03;;;;;;;3.40;1.73;;;10.10;99.70;;;;;;5074088;28;20043;-79
2022/09/28 05:14:28;;;;;;;1.90;1.50;;;10.10;99.70;;;;;;5035024;28;20140;-79
2022/09/28 05:16:54;;;;;;;2.30;1.50;;;10.00;99.70;;;;;;5059713;28;20021;-79
2022/09/28 05:19:20;;;;;;;2.00;1.35;;;10.00;99.80;;;;;;5073063;28;20308;-79
2022/09/28 05:21:47;;;;;;;2.28;1.55;;;10.00;99.90;;;;;;5047080;28;20035;-79
2022/09/28 05:24:13;;;;;;;2.57;1.60;;;9.90;99.90;;;;;;5042969;28;20575;-79
2022/09/28 05:26:39;;;;;;;2.40;1.50;;;9.90;99.90;;;;;;5077302;28;20101;-79
2022/09/28 05:29:04;;;;;;;2.58;1.63;;;9.90;99.90;;;;;;5052480;28;20473;-78
2022/09/28 05:31:31;;;;;;;2.50;1.50;;;9.90;99.90;;;;;;5036868;28;20017;-79
2022/09/28 05:33:57;;;;;;;2.88;1.40;;;9.90;99.90;;;;;;5063773;28;20028;-79
2022/09/28 05:36:25;;;;;;;2.15;1.42;;;9.90;99.90;;;;;;5048160;28;20426;-79
2022/09/28 05:38:51;;;;;;;2.60;1.30;;;9.90;99.90;;;;;;5047680;28;20574;-79
2022/09/28 05:41:17;;;;;;;1.80;1.10;;;9.80;99.90;;;;;;5029933;28;20033;-79
2022/09/28 05:43:44;;;;;;;1.77;1.20;;;9.80;99.90;;;;;;5032616;28;20013;-79
2022/09/28 05:46:10;;;;;;;3.25;1.40;;;9.80;99.90;;;;;;5052036;28;20467;-79
2022/09/28 05:48:35;;;;;;;2.83;1.92;;;9.80;99.90;;;;;;5055136;28;20316;-79
2022/09/28 05:51:01;;;;;;;2.27;1.27;;;9.80;99.90;;;;;;5046650;28;20066;-81
2022/09/28 05:53:27;;;;;;;1.60;1.23;;;9.80;99.90;;;;;;5045773;28;20051;-81
2022/09/28 05:55:57;;;;;;;1.57;1.30;;;9.80;99.90;;;;;;5054859;28;20226;-81
2022/09/28 05:58:22;;;;;;;2.28;1.25;;;9.70;99.90;;;;;;5068217;28;20530;-81
2022/09/28 06:00:54;;;;;;;2.60;1.37;;;9.70;99.90;;;;;;5031618;28;20507;-81
2022/09/28 06:03:19;;;;;;;2.80;1.40;;;9.70;99.90;;;;;;5058983;28;20621;-81
2022/09/28 06:05:46;;;;;;;1.70;1.30;;;9.70;99.90;;;;;;5036665;28;20285;-81
2022/09/28 06:08:12;;;;;;;2.90;1.40;;;9.70;99.90;;;;;;5055281;28;20297;-82
2022/09/28 06:10:38;;;;;;;1.95;1.40;;;9.70;99.90;;;;;;5042724;28;20380;-81
2022/09/28 06:13:04;;;;;;;2.38;1.50;;;9.70;99.90;;;;;;5068032;28;20493;-81
2022/09/28 06:15:31;;;;;;;2.13;1.60;;;9.70;99.90;;;;;;5054418;28;20023;-81
2022/09/28 06:18:04;;;;;;;1.90;1.40;;;9.70;99.90;;;;;;5052498;28;20028;-81
2022/09/28 06:20:33;;;;;;;1.98;1.40;;;9.80;99.90;;;;;;5053676;28;20115;-81
2022/09/28 06:22:59;;;;;;;3.22;1.52;;;9.70;99.90;;;;;;5065403;28;20201;-81
2022/09/28 06:25:26;;;;;;;2.00;1.67;;;9.80;99.90;;;;;;5045099;28;20081;-82
2022/09/28 06:27:55;;;;;;;2.55;1.73;;;9.80;99.90;;;;;;5053307;28;20243;-81
2022/09/28 06:30:21;;;;;;;2.03;1.50;;;9.80;99.90;;;;;;5060595;28;20020;-81
2022/09/28 06:32:46;;;;;;;3.03;1.90;;;9.80;99.90;;;;;;5037575;28;20217;-81
2022/09/28 06:35:14;;;;;;;2.50;1.80;;;9.80;99.90;;;;;;5050376;28;20067;-81
2022/09/28 06:37:43;;;;;;;2.80;1.60;;;9.90;99.90;;;;;;5066062;28;20052;-82
2022/09/28 06:40:09;;;;;;;4.97;1.70;;;9.80;99.90;;;;;;5064220;28;20044;-81
2022/09/28 06:42:35;;;;;;;3.77;1.97;;;9.80;99.90;;;;;;5053766;28;20075;-81
2022/09/28 06:45:01;;;;;;;3.20;2.03;;;9.90;99.90;;;;;;5069125;28;20063;-81
2022/09/28 06:47:27;;;;;;;2.77;1.80;;;9.90;99.90;;;;;;5033865;28;20081;-81
2022/09/28 06:49:54;;;;;;;3.22;1.92;;;10.00;99.90;;;;;;5057612;28;20684;-81
2022/09/28 07:05:55;;;;;;;3.05;1.92;;;10.20;99.90;;;;;;5074124;27;20185;-81
2022/09/28 07:08:27;;;;;;;3.78;2.17;;;10.20;99.90;;;;;;5050626;28;20035;-81
2022/09/28 07:10:56;;;;;;;3.20;1.90;;;10.20;99.90;;;;;;5052493;28;20052;-81
2022/09/28 07:13:27;;;;;;;3.80;2.20;;;10.30;99.90;;;;;;5049094;28;20453;-81
2022/09/28 07:15:58;;;;;;;3.72;2.55;;;10.40;99.90;;;;;;5072125;28;20387;-81
2022/09/28 07:18:28;;;;;;;4.35;2.33;;;10.50;99.90;;;;;;5047016;28;20047;-81
2022/09/28 07:20:58;;;;;;;4.18;2.38;;;10.70;99.90;;;;;;5081779;28;20323;-82
2022/09/28 07:23:26;;;;;;;3.67;2.30;;;11.10;99.90;;;;;;5075060;28;20028;-81
2022/09/28 07:25:52;;;;;;;3.50;2.58;;;11.50;99.90;;;;;;5057899;28;20028;-82
2022/09/28 07:28:19;;;;;;;3.15;2.33;;;12.10;99.90;;;;;;5067224;28;20032;-81
2022/09/28 07:30:44;;;;;;;3.10;2.10;;;12.60;99.90;;;;;;5064560;28;20016;-80
2022/09/28 07:33:13;;;;;;;3.93;2.30;;;13.20;99.90;;;;;;5061538;28;20526;-80
2022/09/28 07:35:41;;;;;;;3.15;2.30;;;13.70;99.90;;;;;;5065567;27;20025;-80
2022/09/28 07:38:07;;;;;;;4.05;2.20;;;14.20;99.90;;;;;;5079550;28;20680;-80
2022/09/28 07:43:22;;;;;;;3.88;2.20;;;15.10;99.90;;;;;;5054428;28;20127;-79
2022/09/28 07:45:49;;;;;;;2.20;1.90;;;15.70;99.90;;;;;;5069797;28;20492;-80
2022/09/28 07:48:16;;;;;;;2.83;1.90;;;16.10;99.90;;;;;;5078817;28;20103;-80
2022/09/28 07:51:02;;;;;;;2.85;2.08;;;16.50;99.90;;;;;;5047699;28;20474;-80
2022/09/28 07:53:28;;;;;;;3.47;1.88;;;16.90;99.90;;;;;;5070161;28;20029;-80
2022/09/28 07:55:56;;;;;;;2.72;1.70;;;17.30;99.90;;;;;;5068237;28;20032;-80
2022/09/28 07:58:22;;;;;;;2.60;2.00;;;17.70;99.90;;;;;;5046077;28;20444;-80
2022/09/28 08:00:48;;;;;;;2.90;2.10;;;18.10;99.90;;;;;;5072247;28;20036;-80
2022/09/28 08:03:16;;;;;;;3.30;1.88;;;18.50;99.90;;;;;;5062813;28;20119;-79
2022/09/28 08:05:42;;;;;;;2.60;1.90;;;18.90;99.90;;;;;;5057636;28;20039;-79
2022/09/28 08:08:08;;;;;;;3.10;1.90;;;19.30;99.90;;;;;;5053177;28;20027;-80
2022/09/28 08:10:36;;;;;;;3.35;1.73;;;19.60;99.90;;;;;;5061848;28;20457;-80
2022/09/28 08:13:03;;;;;;;2.40;1.88;;;19.90;99.90;;;;;;5075438;28;20020;-80
2022/09/28 08:15:37;;;;;;;3.60;2.00;;;20.20;99.90;;;;;;5059947;28;20599;-80
2022/09/28 08:18:06;;;;;;;3.20;1.90;;;20.50;99.90;;;;;;5048829;28;20032;-80
2022/09/28 08:23:17;;;;;;;2.22;1.60;;;20.90;99.90;;;;;;5062390;28;20077;-80
2022/09/28 08:25:52;;;;;;;3.88;1.90;;;21.10;99.90;;;;;;5068182;28;20286;-80
2022/09/28 08:28:18;;;;;;;2.13;1.50;;;21.20;97.90;;;;;;5060158;28;20541;-79
2022/09/28 08:30:45;;;;;;;3.63;1.57;;;21.40;99.90;;;;;;5075681;28;20024;-79
2022/09/28 08:33:16;;;;;;;2.33;1.73;;;21.50;98.60;;;;;;5079728;27;20021;-79
2022/09/28 08:35:43;;;;;;;2.53;1.67;;;21.60;98.70;;;;;;5062474;28;20101;-79
2022/09/28 08:38:09;;;;;;;2.95;1.58;;;21.70;98.90;;;;;;5061762;28;20024;-79
2022/09/28 08:41:10;;;;;;;3.03;2.03;;;21.80;98.50;;;;;;5063654;28;20406;-79
2022/09/28 08:43:50;;;;;;;2.63;1.60;;;21.80;95.10;;;;;;4980222;28;20225;-79
2022/09/28 08:46:20;;;;;;;3.10;1.80;;;21.80;96.10;;;;;;5060032;28;20024;-79
2022/09/28 08:49:03;;;;;;;3.22;1.70;;;22.00;99.90;;;;;;5060406;28;20104;-79
2022/09/28 08:51:32;;;;;;;3.00;1.58;;;22.20;97.10;;;;;;5057081;28;20563;-79
2022/09/28 08:53:58;;;;;;;3.78;1.50;;;22.20;96.90;;;;;;5060440;28;20166;-79
2022/09/28 08:56:46;;;;;;;2.00;1.50;;;22.10;96.20;;;;;;5064219;28;20511;-78
2022/09/28 08:59:22;;;;;;;3.30;1.50;;;21.90;93.90;;;;;;5061561;28;20028;-79
2022/09/28 09:01:57;;;;;;;3.75;1.73;;;21.70;95.50;;;;;;5046819;28;20377;-79
2022/09/28 09:04:22;;;;;;;2.67;1.60;;;21.70;97.60;;;;;;5047815;28;22550;-79
2022/09/28 09:07:17;;;;;;;3.50;1.50;;;21.80;99.90;;;;;;5064666;28;20094;-79
2022/09/28 09:09:58;;;;;;;3.05;1.40;;;22.00;98.70;;;;;;5056855;28;20480;-79
2022/09/28 09:12:36;;;;;;;2.75;1.58;;;22.20;97.70;;;;;;5037701;28;20271;-79
2022/09/28 09:15:05;;;;;;;2.70;1.48;;;22.50;97.40;;;;;;5057885;28;20020;-79
2022/09/28 09:17:54;;;;;;;3.33;1.65;;;22.70;99.90;;;;;;5073421;28;20032;-79
2022/09/28 09:20:28;;;;;;;4.20;1.60;;;23.00;96.60;;;;;;5047480;28;20131;-79
2022/09/28 09:23:00;;;;;;;2.67;1.30;;;23.30;99.90;;;;;;5076097;28;20017;-80
2022/09/28 09:25:28;;;;;;;1.80;1.33;;;23.50;99.70;;;;;;5049387;28;20029;-79
2022/09/28 09:28:30;;;;;;;2.45;1.35;;;23.70;99.10;;;;;;5058765;28;20519;-80
2022/09/28 09:31:16;;;;;;;2.15;1.20;;;24.00;95.30;;;;;;5056448;28;20032;-79
2022/09/28 09:34:01;;;;;;;1.97;1.30;;;24.40;96.80;;;;;;5077539;28;20035;-79
2022/09/28 09:36:42;;;;;;;1.67;1.27;;;24.70;97.00;;;;;;5067346;28;20122;-80
2022/09/28 09:39:41;;;;;;;1.48;1.15;;;25.00;99.10;;;;;;5074795;28;20319;-80
2022/09/28 09:42:43;;;;;;;1.20;1.02;;;25.30;95.60;;;;;;5046064;28;20281;-80
2022/09/28 09:45:34;;;;;;;1.30;1.10;;;25.50;94.10;;;;;;5057943;28;20176;-80
2022/09/28 09:48:10;;;;;;;3.83;1.20;;;25.70;98.90;;;;;;5061003;28;20120;-80
2022/09/28 09:50:43;;;;;;;2.03;1.48;;;25.90;95.50;;;;;;5065250;28;20244;-79
2022/09/28 09:53:22;;;;;;;1.80;1.40;;;26.10;99.90;;;;;;5068594;28;20016;-79
2022/09/28 09:55:56;;;;;;;2.70;1.70;;;26.30;95.60;;;;;;5054492;28;20312;-79
2022/09/28 09:58:29;;;;;;;2.35;1.35;;;26.60;98.00;;;;;;5055681;28;20073;-79
2022/09/28 10:01:00;;;;;;;2.57;1.40;;;26.80;97.60;;;;;;5058019;28;20081;-79
2022/09/28 10:03:30;;;;;;;1.60;1.30;;;27.00;97.60;;;;;;5047920;28;20455;-79
2022/09/28 10:06:11;;;;;;;1.58;1.00;;;27.30;98.00;;;;;;5053133;28;20028;-79
2022/09/28 10:08:40;;;;;;;1.80;1.20;;;27.50;94.70;;;;;;5065645;28;20092;-80
2022/09/28 10:11:20;;;;;;;2.22;1.35;;;27.80;98.60;;;;;;5072289;28;20212;-79
2022/09/28 10:13:47;;;;;;;1.73;1.17;;;28.10;96.30;;;;;;5076649;28;20066;-79
2022/09/28 10:16:16;;;;;;;2.53;1.50;;;28.40;99.90;;;;;;5062375;28;20071;-79
2022/09/28 10:18:41;;;;;;;2.90;1.70;;;28.70;99.90;;;;;;5039745;28;20031;-80
2022/09/28 10:21:13;;;;;;;1.70;1.33;;;29.10;99.90;;;;;;5055282;28;20320;-80
2022/09/28 10:23:39;;;;;;;2.50;1.48;;;29.20;95.40;;;;;;5067935;28;20102;-80
2022/09/28 10:26:14;;;;;;;2.35;1.27;;;29.40;97.80;;;;;;5039815;28;20109;-81
2022/09/28 10:29:00;;;;;;;2.00;1.20;;;29.50;94.40;;;;;;5060929;28;20051;-80
2022/09/28 10:31:36;;;;;;;3.30;1.40;;;29.50;89.10;;;;;;5075803;28;20039;-80
2022/09/28 10:34:07;;;;;;;1.50;1.07;;;29.20;82.70;;;;;;5057456;28;20335;-80
2022/09/28 10:36:42;;;;;;;2.35;1.05;;;28.80;88.80;;;;;;5069562;28;20119;-79
2022/09/28 10:39:35;;;;;;;2.58;0.95;;;28.20;89.70;;;;;;5088563;28;20017;-80
2022/09/28 10:42:11;;;;;;;2.75;1.33;;;27.80;83.60;;;;;;5036756;28;20032;-80
2022/09/28 10:45:12;;;;;;;3.63;1.30;;;27.50;90.30;;;;;;5049041;28;20016;-79
2022/09/28 10:47:43;;;;;;;2.10;0.97;;;27.20;84.60;;;;;;5047299;28;20138;-79
2022/09/28 10:50:21;;;;;;;1.77;0.90;;;27.00;90.60;;;;;;5061106;28;20032;-80
2022/09/28 10:52:47;;;;;;;1.30;0.98;;;26.80;84.50;;;;;;5064959;28;20132;-79
2022/09/28 10:55:31;;;;;;;1.77;0.90;;;26.60;91.40;;;;;;5052200;28;20028;-80
2022/09/28 10:57:58;;;;;;;1.65;0.88;;;26.20;84.30;;;;;;5050906;28;20197;-80
2022/09/28 11:00:40;;;;;;;1.80;0.90;;;26.00;92.10;;;;;;5063797;28;20456;-80
2022/09/28 11:03:22;;;;;;;1.55;0.63;;;26.00;90.60;;;;;;5045699;28;20289;-79
2022/09/28 11:05:59;;;;;;;0.80;0.80;;;26.00;91.00;;;;;;5047668;28;20025;-80
2022/09/28 11:08:33;;;;;;;1.77;0.90;;;26.00;91.10;;;;;;5064705;28;20231;-80
2022/09/28 11:11:20;;;;;;;1.58;0.80;;;25.80;90.00;;;;;;5078365;28;20023;-80
2022/09/28 11:14:02;;;;;;;3.13;0.77;;;25.60;84.90;;;;;;5052874;28;20080;-79
2022/09/28 11:16:30;;;;;;;0.77;0.70;;;25.30;90.00;;;;;;5047424;28;20690;-79
2022/09/28 11:19:01;;;;;;;1.95;0.93;;;25.00;90.10;;;;;;5071167;28;20027;-80
2022/09/28 11:21:33;;;;;;;1.20;0.70;;;24.70;90.40;;;;;;5059503;28;20039;-79
2022/09/28 11:24:19;;;;;;;1.77;0.82;;;24.50;91.10;;;;;;5065812;28;20027;-78
2022/09/28 11:26:51;;;;;;;1.30;0.80;;;24.30;87.70;;;;;;5055655;28;20021;-79
2022/09/28 11:29:42;;;;;;;1.88;1.00;;;24.30;93.40;;;;;;5056394;28;20249;-79
2022/09/28 11:32:09;;;;;;;1.50;1.00;;;24.40;92.10;;;;;;5051102;28;20055;-78
2022/09/28 11:34:43;;;;;;;1.80;0.97;;;24.60;97.80;;;;;;5048538;28;20012;-79
2022/09/28 11:37:30;;;;;;;2.67;1.10;;;24.80;94.50;;;;;;5046569;28;20016;-80
2022/09/28 11:40:19;;;;;;;1.55;1.05;;;25.10;95.70;;;;;;5049183;28;20027;-79
2022/09/28 11:42:51;;;;;;;1.77;1.10;;;25.40;94.20;;;;;;5066718;27;20074;-79
2022/09/28 11:45:47;;;;;;;2.10;1.10;;;25.60;98.10;;;;;;5051470;28;20456;-79
2022/09/28 11:48:17;;;;;;;1.20;0.90;;;25.80;93.30;;;;;;5061410;28;20429;-80
2022/09/28 11:50:53;;;;;;;1.25;1.00;;;25.90;94.50;;;;;;5060245;28;20024;-79
2022/09/28 11:53:30;;;;;;;1.88;1.10;;;25.90;91.40;;;;;;5058684;28;20247;-79
2022/09/28 11:56:17;;;;;;;1.58;1.00;;;25.80;90.40;;;;;;5059937;28;20039;-80
2022/09/28 11:58:51;;;;;;;2.45;1.13;;;25.70;90.80;;;;;;5049181;28;20123;-79
2022/09/28 12:01:28;;;;;;;1.60;1.30;;;25.40;88.30;;;;;;5053635;28;20036;-78
2022/09/28 12:04:25;;;;;;;1.25;1.05;;;25.20;86.90;;;;;;5063731;28;20392;-79
2022/09/28 12:06:58;;;;;;;2.47;1.10;;;24.80;83.00;;;;;;5063481;28;20437;-79
2022/09/28 12:10:02;;;;;;;2.97;1.38;;;24.50;85.40;;;;;;5040627;28;20117;-79
2022/09/28 12:12:46;;;;;;;2.08;1.27;;;24.10;81.80;;;;;;5060262;28;20315;-80
2022/09/28 12:15:23;;;;;;;1.93;1.30;;;23.80;84.40;;;;;;5051524;28;20107;-79
2022/09/28 12:17:56;;;;;;;1.80;1.20;;;23.50;85.30;;;;;;5058417;28;20713;-80
2022/09/28 12:20:29;;;;;;;3.45;1.50;;;23.30;86.90;;;;;;5061466;28;20103;-79
2022/09/28 12:22:57;;;;;;;2.03;1.15;;;23.00;87.90;;;;;;5038003;28;20044;-79
2022/09/28 12:25:24;;;;;;;1.77;1.10;;;22.80;88.30;;;;;;5048651;28;20127;-79
2022/09/28 12:28:05;;;;;;;1.20;1.10;;;22.50;87.50;;;;;;5072274;28;20384;-80
2022/09/28 12:30:36;;;;;;;2.10;1.10;;;22.20;85.70;;;;;;5037781;28;20035;-78
2022/09/28 12:33:16;;;;;;;1.20;1.10;;;21.90;85.40;;;;;;5054928;28;20472;-78
2022/09/28 12:36:15;;;;;;;1.00;0.90;;;21.60;83.00;;;;;;5060772;28;20036;-78
2022/09/28 12:39:00;;;;;;;0.98;0.90;;;21.40;82.70;;;;;;5055833;28;20032;-78
2022/09/28 12:41:41;;;;;;;1.27;0.97;;;21.10;87.50;;;;;;5063825;28;20201;-78
2022/09/28 12:44:10;;;;;;;1.45;0.90;;;20.90;84.60;;;;;;5046705;28;20040;-79
2022/09/28 12:46:57;;;;;;;1.33;0.90;;;20.70;87.00;;;;;;5053664;28;20122;-79
2022/09/28 12:49:36;;;;;;;1.83;1.10;;;20.50;87.70;;;;;;5067224;28;20043;-78
2022/09/28 12:52:41;;;;;;;1.10;1.00;;;20.40;87.20;;;;;;5066882;28;20047;-78
2022/09/28 12:55:16;;;;;;;1.90;0.80;;;20.20;87.20;;;;;;5067915;27;20115;-78
2022/09/28 12:57:56;;;;;;;1.75;0.90;;;20.10;89.90;;;;;;5062913;28;20036;-78
2022/09/28 13:00:29;;;;;;;1.50;0.90;;;20.10;91.00;;;;;;5086390;28;20080;-78
2022/09/28 13:03:44;;;;;;;1.55;1.00;;;20.10;92.10;;;;;;5059218;28;20435;-78
2022/09/28 13:06:34;;;;;;;1.55;0.90;;;20.20;91.30;;;;;;5002890;28;20674;-78
2022/09/28 13:09:20;;;;;;;1.10;0.97;;;20.30;90.90;;;;;;5086667;28;20168;-78
2022/09/28 13:12:12;;;;;;;1.38;0.90;;;20.40;91.30;;;;;;5058471;28;20020;-78
2022/09/28 13:15:03;;;;;;;1.23;0.98;;;20.40;91.70;;;;;;5061091;28;20035;-78
2022/09/28 13:17:50;;;;;;;1.45;0.95;;;20.50;91.90;;;;;;5028260;28;20093;-78
2022/09/28 13:20:22;;;;;;;1.35;1.00;;;20.60;95.00;;;;;;5068363;28;20024;-78
2022/09/28 13:23:21;;;;;;;1.93;1.03;;;20.80;97.30;;;;;;5043146;28;20037;-78
2022/09/28 13:25:54;;;;;;;1.83;1.20;;;21.30;97.80;;;;;;5067678;28;20028;-79
2022/09/28 13:28:21;;;;;;;2.75;1.10;;;21.80;99.90;;;;;;5053597;28;20488;-79
2022/09/28 13:30:49;;;;;;;1.65;1.10;;;22.30;99.90;;;;;;5060108;28;20040;-79
2022/09/28 13:33:25;;;;;;;1.60;1.10;;;22.70;99.90;;;;;;5057614;28;20040;-80
2022/09/28 13:35:51;;;;;;;2.17;1.13;;;22.90;97.70;;;;;;5070149;28;20093;-79
2022/09/28 13:38:17;;;;;;;2.33;1.10;;;23.10;96.60;;;;;;5060728;28;20552;-78